Flight Information

DEPARTURE
SANTA ANA, CA
Elevation:
56
Runways:
2L/20R - 5701x150 - ASPH-G
2R/20L - 2887x75 - ASPH-G
Active PE Departure:
20L - 20R
Current PE ATIS:
Y
Altimeter:
29.96
Remarks:
V F R DEPARTURES CONTACT CLEARANCE DELIVERY, ADVISE ON COURSE HEADING, ALTITUDE, AND IF FLIGHT FOLLOWING IS REQUESTED.
ATIS:
126 714-546-2279
Clearance Delivery:
118.0 121.85
Ground:
120.8 (East) 132.25 (West)
Tower:
119.9 (Rwy 2R-20L) 126.8 (Rwy 2L-20R)
DESTINATION
,
Elevation:
TPA:
1000 (est.)


6773.3 NM74° True-14° Var60° HDG

Flight Plan:
(click to file on line)

1. Type
2. Aircraft Identification
3. Aircraft Type / Special Equipment
4. True Airspeed
kts
5. Departure Airport
(ICAO code)
6. Arriving Airport
(ICAO code)
7. Cruising Altitude
ft
8. Alternate Airport
(ICAO code)
9. Route of Flight
10. Remarks


00:00:00 Departure ATIS: Destination ATIS:

Clearance Limit:
Route:
Altitude: Expect in minutes
Frequency:
Transponder: (7500 Hijack / 7600 Lost Comms / 7700 Emergency)


KSNA 080218Z 25010KT 4SM -RA BR BKN008 BKN018TCU OVC042 13/09 A2996 RMK AO2 TCU NE P0002 T01330094 $
Time: 2020-04-08T02:18:00Z
1586313101
Winds: 250 @ 10 kts
Visibility: 4.0 sm
Clouds (AGL): BKN 800
BKN 1800
OVC 4200
Temperature: 13.3 C
Dew Point: 9.4 C
Pressure: 29.958662 in Hgbr


Notes:

Data extracted from FAA Digital Chart Supplement. Effective: 0901Z Thursday, Mar 26, 2020 to 0901Z Thursday, May 21, 2020
Current ATIS data is provided courtisy of PilotEdge.